SBBR/BSB METAR and TAF weather

Enter ICAO airport designator
Station Type Date Time Source
SBBR METAR 2022/06/27 07:00 UTC NOAA

SBBR 270700Z VRB02KT CAVOK 12/10 Q1020


Station Type Date Time Source
SBBR Decoded METAR 2022/06/27 07:00 UTC NOAA

Brasilia Aeroporto , Brazil (SBBR) 15-52S 047-56W 1061M
Jun 27, 2022 - 03:00 AM EDT / 2022.06.27 0700 UTC
Wind: Variable at 2 MPH (2 KT):0
Visibility: greater than 7 mile(s):0
Temperature: 53 F (12 C)
Dew Point: 50 F (10 C)
Relative Humidity: 87%
Pressure (altimeter): 30.12 in. Hg (1020 hPa)
ob: SBBR 270700Z VRB02KT CAVOK 12/10 Q1020
cycle: 7

Station Type Date Time Source
SBBR TAF 2022/06/27 06:31 UTC NOAA

TAF SBBR 270300Z 2706/2806 00000KT CAVOK TN11/2709Z TX26/2718Z
BECMG 2712/2714 08009KT
BECMG 2718/2720 09005KT PROB40 2721/2801 13005KT
BECMG 2802/2804 00000KT
RMK PGH

Example: see airport list